sensor_id;sensor_type;location;lat;lon;timestamp;P1;durP1;ratioP1;P2;durP2;ratioP2
34234;SDS011;20500;49.856;20.290;2022-07-01T00:00:47;15.20;;;10.10;;
34234;SDS011;20500;49.856;20.290;2022-07-01T00:03:53;14.00;;;10.00;;
34234;SDS011;20500;49.856;20.290;2022-07-01T00:06:59;14.80;;;10.80;;
34234;SDS011;20500;49.856;20.290;2022-07-01T00:10:05;14.60;;;10.30;;
34234;SDS011;20500;49.856;20.290;2022-07-01T00:13:12;15.10;;;10.50;;
34234;SDS011;20500;49.856;20.290;2022-07-01T00:16:17;16.20;;;10.60;;
34234;SDS011;20500;49.856;20.290;2022-07-01T00:19:23;14.80;;;10.00;;
34234;SDS011;20500;49.856;20.290;2022-07-01T00:22:28;14.70;;;10.10;;
34234;SDS011;20500;49.856;20.290;2022-07-01T00:25:34;13.90;;;10.10;;
34234;SDS011;20500;49.856;20.290;2022-07-01T00:28:39;17.00;;;10.80;;
34234;SDS011;20500;49.856;20.290;2022-07-01T00:31:44;15.40;;;10.90;;
34234;SDS011;20500;49.856;20.290;2022-07-01T00:34:50;17.20;;;11.00;;
34234;SDS011;20500;49.856;20.290;2022-07-01T00:37:56;14.60;;;10.60;;
34234;SDS011;20500;49.856;20.290;2022-07-01T00:41:01;14.00;;;9.90;;
34234;SDS011;20500;49.856;20.290;2022-07-01T00:44:07;14.70;;;10.90;;
34234;SDS011;20500;49.856;20.290;2022-07-01T00:47:20;15.00;;;10.10;;
34234;SDS011;20500;49.856;20.290;2022-07-01T00:50:27;14.80;;;10.20;;
34234;SDS011;20500;49.856;20.290;2022-07-01T00:53:33;15.10;;;10.50;;
34234;SDS011;20500;49.856;20.290;2022-07-01T00:56:39;16.50;;;10.80;;
34234;SDS011;20500;49.856;20.290;2022-07-01T00:59:44;15.20;;;10.70;;
34234;SDS011;20500;49.856;20.290;2022-07-01T01:02:49;15.80;;;11.20;;
34234;SDS011;20500;49.856;20.290;2022-07-01T01:05:55;14.50;;;10.10;;
34234;SDS011;20500;49.856;20.290;2022-07-01T01:09:01;16.10;;;10.60;;
34234;SDS011;20500;49.856;20.290;2022-07-01T01:12:08;16.70;;;9.90;;
34234;SDS011;20500;49.856;20.290;2022-07-01T01:15:18;15.30;;;10.40;;
34234;SDS011;20500;49.856;20.290;2022-07-01T01:18:24;14.80;;;10.20;;
34234;SDS011;20500;49.856;20.290;2022-07-01T01:21:29;14.60;;;11.30;;
34234;SDS011;20500;49.856;20.290;2022-07-01T01:24:35;14.90;;;10.70;;
34234;SDS011;20500;49.856;20.290;2022-07-01T01:27:41;16.30;;;11.00;;
34234;SDS011;20500;49.856;20.290;2022-07-01T01:30:47;16.50;;;11.00;;
34234;SDS011;20500;49.856;20.290;2022-07-01T01:33:53;15.70;;;11.10;;
34234;SDS011;20500;49.856;20.290;2022-07-01T01:36:59;16.60;;;11.10;;
34234;SDS011;20500;49.856;20.290;2022-07-01T01:40:06;15.20;;;10.70;;
34234;SDS011;20500;49.856;20.290;2022-07-01T01:43:13;14.50;;;10.60;;
34234;SDS011;20500;49.856;20.290;2022-07-01T01:46:18;14.60;;;9.80;;
34234;SDS011;20500;49.856;20.290;2022-07-01T01:49:24;14.70;;;10.60;;
34234;SDS011;20500;49.856;20.290;2022-07-01T01:52:30;14.20;;;10.20;;
34234;SDS011;20500;49.856;20.290;2022-07-01T01:55:35;14.70;;;10.40;;
34234;SDS011;20500;49.856;20.290;2022-07-01T01:58:40;14.50;;;10.50;;
34234;SDS011;20500;49.856;20.290;2022-07-01T02:04:51;15.60;;;10.10;;
34234;SDS011;20500;49.856;20.290;2022-07-01T02:07:56;16.70;;;10.30;;
34234;SDS011;20500;49.856;20.290;2022-07-01T02:11:02;15.70;;;10.30;;
34234;SDS011;20500;49.856;20.290;2022-07-01T02:14:08;14.90;;;10.40;;
34234;SDS011;20500;49.856;20.290;2022-07-01T02:17:13;14.40;;;10.60;;
34234;SDS011;20500;49.856;20.290;2022-07-01T02:20:19;15.50;;;10.80;;
34234;SDS011;20500;49.856;20.290;2022-07-01T02:23:24;15.80;;;10.90;;
34234;SDS011;20500;49.856;20.290;2022-07-01T02:26:31;16.80;;;10.90;;
34234;SDS011;20500;49.856;20.290;2022-07-01T02:29:38;15.90;;;10.40;;
34234;SDS011;20500;49.856;20.290;2022-07-01T02:32:44;15.60;;;10.60;;
34234;SDS011;20500;49.856;20.290;2022-07-01T02:35:49;13.70;;;9.80;;
34234;SDS011;20500;49.856;20.290;2022-07-01T02:38:55;14.00;;;10.40;;
34234;SDS011;20500;49.856;20.290;2022-07-01T02:42:00;13.70;;;9.60;;
34234;SDS011;20500;49.856;20.290;2022-07-01T02:45:24;17.60;;;10.30;;
34234;SDS011;20500;49.856;20.290;2022-07-01T02:48:29;15.90;;;10.70;;
34234;SDS011;20500;49.856;20.290;2022-07-01T02:51:35;16.00;;;10.30;;
34234;SDS011;20500;49.856;20.290;2022-07-01T02:54:41;15.80;;;9.60;;
34234;SDS011;20500;49.856;20.290;2022-07-01T02:57:46;14.40;;;10.10;;
34234;SDS011;20500;49.856;20.290;2022-07-01T03:00:54;14.60;;;10.50;;
34234;SDS011;20500;49.856;20.290;2022-07-01T03:03:59;18.50;;;9.70;;
34234;SDS011;20500;49.856;20.290;2022-07-01T03:07:04;14.10;;;9.90;;
34234;SDS011;20500;49.856;20.290;2022-07-01T03:10:10;13.90;;;9.90;;
34234;SDS011;20500;49.856;20.290;2022-07-01T03:13:16;16.20;;;10.20;;
34234;SDS011;20500;49.856;20.290;2022-07-01T03:16:22;13.60;;;10.00;;
34234;SDS011;20500;49.856;20.290;2022-07-01T03:19:27;14.00;;;10.10;;
34234;SDS011;20500;49.856;20.290;2022-07-01T03:22:33;14.50;;;9.90;;
34234;SDS011;20500;49.856;20.290;2022-07-01T03:25:39;15.40;;;9.70;;
34234;SDS011;20500;49.856;20.290;2022-07-01T03:28:44;14.20;;;9.80;;
34234;SDS011;20500;49.856;20.290;2022-07-01T03:31:50;15.80;;;10.00;;
34234;SDS011;20500;49.856;20.290;2022-07-01T03:34:55;14.60;;;9.90;;
34234;SDS011;20500;49.856;20.290;2022-07-01T03:38:01;16.60;;;10.10;;
34234;SDS011;20500;49.856;20.290;2022-07-01T03:41:07;14.80;;;9.50;;
34234;SDS011;20500;49.856;20.290;2022-07-01T03:44:12;14.60;;;9.30;;
34234;SDS011;20500;49.856;20.290;2022-07-01T03:47:17;14.10;;;9.40;;
34234;SDS011;20500;49.856;20.290;2022-07-01T03:50:23;14.00;;;9.40;;
34234;SDS011;20500;49.856;20.290;2022-07-01T03:53:29;15.70;;;9.60;;
34234;SDS011;20500;49.856;20.290;2022-07-01T03:56:52;13.90;;;9.30;;
34234;SDS011;20500;49.856;20.290;2022-07-01T03:59:58;15.80;;;9.80;;
34234;SDS011;20500;49.856;20.290;2022-07-01T04:03:03;13.20;;;8.70;;
34234;SDS011;20500;49.856;20.290;2022-07-01T04:06:09;15.00;;;9.40;;
34234;SDS011;20500;49.856;20.290;2022-07-01T04:09:15;13.70;;;8.60;;
34234;SDS011;20500;49.856;20.290;2022-07-01T04:12:22;14.30;;;8.80;;
34234;SDS011;20500;49.856;20.290;2022-07-01T04:15:27;12.40;;;8.50;;
34234;SDS011;20500;49.856;20.290;2022-07-01T04:18:33;13.20;;;8.50;;
34234;SDS011;20500;49.856;20.290;2022-07-01T04:21:38;12.80;;;8.50;;
34234;SDS011;20500;49.856;20.290;2022-07-01T04:25:02;13.50;;;8.40;;
34234;SDS011;20500;49.856;20.290;2022-07-01T04:28:08;13.60;;;8.50;;
34234;SDS011;20500;49.856;20.290;2022-07-01T04:31:14;14.90;;;8.10;;
34234;SDS011;20500;49.856;20.290;2022-07-01T04:34:19;13.40;;;7.80;;
34234;SDS011;20500;49.856;20.290;2022-07-01T04:37:25;12.40;;;7.80;;
34234;SDS011;20500;49.856;20.290;2022-07-01T04:40:30;13.50;;;7.90;;
34234;SDS011;20500;49.856;20.290;2022-07-01T04:43:35;13.00;;;8.20;;
34234;SDS011;20500;49.856;20.290;2022-07-01T04:46:41;13.80;;;8.10;;
34234;SDS011;20500;49.856;20.290;2022-07-01T04:52:50;12.50;;;8.10;;
34234;SDS011;20500;49.856;20.290;2022-07-01T04:55:56;13.50;;;9.10;;
34234;SDS011;20500;49.856;20.290;2022-07-01T04:59:01;16.40;;;10.50;;
34234;SDS011;20500;49.856;20.290;2022-07-01T05:02:07;13.40;;;9.10;;
34234;SDS011;20500;49.856;20.290;2022-07-01T05:05:14;16.00;;;8.40;;
34234;SDS011;20500;49.856;20.290;2022-07-01T05:08:20;11.50;;;8.30;;
34234;SDS011;20500;49.856;20.290;2022-07-01T05:11:25;13.30;;;8.50;;
34234;SDS011;20500;49.856;20.290;2022-07-01T05:14:31;13.50;;;8.80;;
34234;SDS011;20500;49.856;20.290;2022-07-01T05:17:38;13.50;;;9.10;;
34234;SDS011;20500;49.856;20.290;2022-07-01T05:21:01;14.70;;;9.20;;
34234;SDS011;20500;49.856;20.290;2022-07-01T05:24:25;13.80;;;9.40;;
34234;SDS011;20500;49.856;20.290;2022-07-01T05:27:33;17.50;;;9.20;;
34234;SDS011;20500;49.856;20.290;2022-07-01T05:30:38;15.00;;;10.00;;
34234;SDS011;20500;49.856;20.290;2022-07-01T05:36:48;13.30;;;8.90;;
34234;SDS011;20500;49.856;20.290;2022-07-01T05:39:53;14.40;;;8.80;;
34234;SDS011;20500;49.856;20.290;2022-07-01T05:42:59;14.90;;;9.30;;
34234;SDS011;20500;49.856;20.290;2022-07-01T05:49:09;13.30;;;9.20;;
34234;SDS011;20500;49.856;20.290;2022-07-01T05:52:20;13.00;;;8.50;;
34234;SDS011;20500;49.856;20.290;2022-07-01T05:55:25;14.90;;;9.10;;
34234;SDS011;20500;49.856;20.290;2022-07-01T05:58:31;14.20;;;8.80;;
34234;SDS011;20500;49.856;20.290;2022-07-01T06:01:36;14.20;;;9.50;;
34234;SDS011;20500;49.856;20.290;2022-07-01T06:07:46;13.60;;;9.40;;
34234;SDS011;20500;49.856;20.290;2022-07-01T06:13:55;14.10;;;9.40;;
34234;SDS011;20500;49.856;20.290;2022-07-01T06:20:06;15.00;;;9.20;;
34234;SDS011;20500;49.856;20.290;2022-07-01T06:23:13;12.20;;;8.30;;
34234;SDS011;20500;49.856;20.290;2022-07-01T06:29:22;12.50;;;7.60;;
34234;SDS011;20500;49.856;20.290;2022-07-01T06:32:30;11.50;;;7.00;;
34234;SDS011;20500;49.856;20.290;2022-07-01T06:35:35;12.00;;;7.60;;
34234;SDS011;20500;49.856;20.290;2022-07-01T06:38:41;13.40;;;7.60;;
34234;SDS011;20500;49.856;20.290;2022-07-01T06:41:46;11.70;;;7.20;;
34234;SDS011;20500;49.856;20.290;2022-07-01T06:44:52;10.80;;;6.70;;
34234;SDS011;20500;49.856;20.290;2022-07-01T06:47:57;12.20;;;6.30;;
34234;SDS011;20500;49.856;20.290;2022-07-01T06:51:05;11.70;;;6.60;;
34234;SDS011;20500;49.856;20.290;2022-07-01T06:54:11;12.80;;;6.40;;
34234;SDS011;20500;49.856;20.290;2022-07-01T06:57:16;11.40;;;6.80;;
34234;SDS011;20500;49.856;20.290;2022-07-01T07:00:21;11.30;;;6.70;;
34234;SDS011;20500;49.856;20.290;2022-07-01T07:03:27;11.40;;;7.00;;
34234;SDS011;20500;49.856;20.290;2022-07-01T07:06:35;13.90;;;6.80;;
34234;SDS011;20500;49.856;20.290;2022-07-01T07:09:40;11.10;;;7.00;;
34234;SDS011;20500;49.856;20.290;2022-07-01T07:12:45;11.70;;;6.90;;
34234;SDS011;20500;49.856;20.290;2022-07-01T07:15:51;11.70;;;6.50;;
34234;SDS011;20500;49.856;20.290;2022-07-01T07:18:56;11.80;;;7.10;;
34234;SDS011;20500;49.856;20.290;2022-07-01T07:22:02;13.30;;;7.10;;
34234;SDS011;20500;49.856;20.290;2022-07-01T07:25:08;13.50;;;6.80;;
34234;SDS011;20500;49.856;20.290;2022-07-01T07:28:14;12.10;;;7.00;;
34234;SDS011;20500;49.856;20.290;2022-07-01T07:31:20;12.60;;;6.60;;
34234;SDS011;20500;49.856;20.290;2022-07-01T07:34:25;14.10;;;8.10;;
34234;SDS011;20500;49.856;20.290;2022-07-01T07:37:31;10.90;;;6.60;;
34234;SDS011;20500;49.856;20.290;2022-07-01T07:40:36;12.10;;;7.00;;
34234;SDS011;20500;49.856;20.290;2022-07-01T07:43:42;13.20;;;6.70;;
34234;SDS011;20500;49.856;20.290;2022-07-01T07:46:47;13.00;;;7.60;;
34234;SDS011;20500;49.856;20.290;2022-07-01T07:49:53;11.40;;;6.50;;
34234;SDS011;20500;49.856;20.290;2022-07-01T07:52:58;13.00;;;6.10;;
34234;SDS011;20500;49.856;20.290;2022-07-01T07:56:04;13.10;;;6.60;;
34234;SDS011;20500;49.856;20.290;2022-07-01T07:59:10;11.80;;;5.60;;
34234;SDS011;20500;49.856;20.290;2022-07-01T08:02:15;10.70;;;4.60;;
34234;SDS011;20500;49.856;20.290;2022-07-01T08:05:26;9.60;;;4.80;;
34234;SDS011;20500;49.856;20.290;2022-07-01T08:08:32;10.10;;;4.60;;
34234;SDS011;20500;49.856;20.290;2022-07-01T08:11:38;9.90;;;5.40;;
34234;SDS011;20500;49.856;20.290;2022-07-01T08:14:43;11.30;;;4.50;;
34234;SDS011;20500;49.856;20.290;2022-07-01T08:17:49;10.20;;;4.40;;
34234;SDS011;20500;49.856;20.290;2022-07-01T08:20:54;12.80;;;4.30;;
34234;SDS011;20500;49.856;20.290;2022-07-01T08:24:00;13.00;;;4.60;;
34234;SDS011;20500;49.856;20.290;2022-07-01T08:27:05;12.80;;;4.30;;
34234;SDS011;20500;49.856;20.290;2022-07-01T08:30:11;11.40;;;4.70;;
34234;SDS011;20500;49.856;20.290;2022-07-01T08:33:17;9.90;;;4.60;;
34234;SDS011;20500;49.856;20.290;2022-07-01T08:36:22;10.70;;;4.50;;
34234;SDS011;20500;49.856;20.290;2022-07-01T08:39:28;9.90;;;4.70;;
34234;SDS011;20500;49.856;20.290;2022-07-01T08:42:33;11.90;;;4.70;;
34234;SDS011;20500;49.856;20.290;2022-07-01T08:45:39;9.90;;;4.90;;
34234;SDS011;20500;49.856;20.290;2022-07-01T08:48:45;12.20;;;4.80;;
34234;SDS011;20500;49.856;20.290;2022-07-01T08:51:51;11.40;;;5.50;;
34234;SDS011;20500;49.856;20.290;2022-07-01T08:54:56;11.30;;;4.90;;
34234;SDS011;20500;49.856;20.290;2022-07-01T08:58:01;10.50;;;4.50;;
34234;SDS011;20500;49.856;20.290;2022-07-01T09:01:13;11.10;;;4.60;;
34234;SDS011;20500;49.856;20.290;2022-07-01T09:04:20;14.30;;;5.70;;
34234;SDS011;20500;49.856;20.290;2022-07-01T09:07:30;11.50;;;4.60;;
34234;SDS011;20500;49.856;20.290;2022-07-01T09:10:43;12.40;;;4.80;;
34234;SDS011;20500;49.856;20.290;2022-07-01T09:17:17;13.40;;;5.70;;
34234;SDS011;20500;49.856;20.290;2022-07-01T09:20:24;12.20;;;5.10;;
34234;SDS011;20500;49.856;20.290;2022-07-01T09:23:32;14.10;;;5.50;;
34234;SDS011;20500;49.856;20.290;2022-07-01T09:26:38;11.50;;;5.00;;
34234;SDS011;20500;49.856;20.290;2022-07-01T09:29:45;12.60;;;5.80;;
34234;SDS011;20500;49.856;20.290;2022-07-01T09:33:05;12.20;;;5.30;;
34234;SDS011;20500;49.856;20.290;2022-07-01T09:36:16;10.90;;;5.00;;
34234;SDS011;20500;49.856;20.290;2022-07-01T09:39:21;11.50;;;4.80;;
34234;SDS011;20500;49.856;20.290;2022-07-01T09:42:45;13.10;;;4.90;;
34234;SDS011;20500;49.856;20.290;2022-07-01T09:45:51;11.10;;;4.90;;
34234;SDS011;20500;49.856;20.290;2022-07-01T09:49:02;12.30;;;4.80;;
34234;SDS011;20500;49.856;20.290;2022-07-01T09:52:07;12.70;;;5.20;;
34234;SDS011;20500;49.856;20.290;2022-07-01T09:55:13;10.70;;;4.70;;
34234;SDS011;20500;49.856;20.290;2022-07-01T09:58:19;9.80;;;4.70;;
34234;SDS011;20500;49.856;20.290;2022-07-01T10:01:25;13.60;;;4.90;;
34234;SDS011;20500;49.856;20.290;2022-07-01T10:04:31;10.60;;;5.10;;
34234;SDS011;20500;49.856;20.290;2022-07-01T10:07:41;11.60;;;5.10;;
34234;SDS011;20500;49.856;20.290;2022-07-01T10:11:00;11.30;;;5.10;;
34234;SDS011;20500;49.856;20.290;2022-07-01T10:14:20;13.40;;;4.70;;
34234;SDS011;20500;49.856;20.290;2022-07-01T10:17:27;11.10;;;4.90;;
34234;SDS011;20500;49.856;20.290;2022-07-01T10:20:33;11.30;;;5.00;;
34234;SDS011;20500;49.856;20.290;2022-07-01T10:23:41;10.40;;;4.00;;
34234;SDS011;20500;49.856;20.290;2022-07-01T10:26:48;12.40;;;5.70;;
34234;SDS011;20500;49.856;20.290;2022-07-01T10:30:13;12.70;;;5.80;;
34234;SDS011;20500;49.856;20.290;2022-07-01T10:33:29;10.70;;;4.80;;
34234;SDS011;20500;49.856;20.290;2022-07-01T10:36:36;12.50;;;5.50;;
34234;SDS011;20500;49.856;20.290;2022-07-01T10:39:55;12.10;;;4.60;;
34234;SDS011;20500;49.856;20.290;2022-07-01T10:43:01;10.70;;;4.70;;
34234;SDS011;20500;49.856;20.290;2022-07-01T10:46:40;11.10;;;4.80;;
34234;SDS011;20500;49.856;20.290;2022-07-01T10:49:54;12.40;;;4.40;;
34234;SDS011;20500;49.856;20.290;2022-07-01T10:53:06;12.60;;;4.80;;
34234;SDS011;20500;49.856;20.290;2022-07-01T10:56:12;13.00;;;4.90;;
34234;SDS011;20500;49.856;20.290;2022-07-01T10:59:21;11.60;;;4.40;;
34234;SDS011;20500;49.856;20.290;2022-07-01T11:02:28;14.70;;;4.70;;
34234;SDS011;20500;49.856;20.290;2022-07-01T11:05:35;19.90;;;4.70;;
34234;SDS011;20500;49.856;20.290;2022-07-01T11:08:41;11.30;;;4.20;;
34234;SDS011;20500;49.856;20.290;2022-07-01T11:11:53;12.20;;;4.50;;
34234;SDS011;20500;49.856;20.290;2022-07-01T11:14:59;11.30;;;4.20;;
34234;SDS011;20500;49.856;20.290;2022-07-01T11:18:08;10.80;;;4.50;;
34234;SDS011;20500;49.856;20.290;2022-07-01T11:21:14;9.20;;;3.90;;
34234;SDS011;20500;49.856;20.290;2022-07-01T11:24:19;8.80;;;3.50;;
34234;SDS011;20500;49.856;20.290;2022-07-01T11:27:26;10.30;;;4.20;;
34234;SDS011;20500;49.856;20.290;2022-07-01T11:30:32;13.30;;;6.80;;
34234;SDS011;20500;49.856;20.290;2022-07-01T11:33:38;16.70;;;8.50;;
34234;SDS011;20500;49.856;20.290;2022-07-01T11:36:44;14.30;;;9.10;;
34234;SDS011;20500;49.856;20.290;2022-07-01T11:40:09;16.10;;;8.60;;
34234;SDS011;20500;49.856;20.290;2022-07-01T11:43:20;18.30;;;8.20;;
34234;SDS011;20500;49.856;20.290;2022-07-01T11:46:27;13.80;;;8.00;;
34234;SDS011;20500;49.856;20.290;2022-07-01T11:49:33;16.90;;;8.60;;
34234;SDS011;20500;49.856;20.290;2022-07-01T11:52:46;13.10;;;7.20;;
34234;SDS011;20500;49.856;20.290;2022-07-01T11:55:52;18.70;;;7.70;;
34234;SDS011;20500;49.856;20.290;2022-07-01T11:58:57;13.70;;;7.60;;
34234;SDS011;20500;49.856;20.290;2022-07-01T12:02:04;13.10;;;8.40;;
34234;SDS011;20500;49.856;20.290;2022-07-01T12:05:10;18.20;;;8.30;;
34234;SDS011;20500;49.856;20.290;2022-07-01T12:08:16;16.20;;;8.60;;
34234;SDS011;20500;49.856;20.290;2022-07-01T12:11:22;15.40;;;8.20;;
34234;SDS011;20500;49.856;20.290;2022-07-01T12:14:30;11.90;;;7.30;;
34234;SDS011;20500;49.856;20.290;2022-07-01T12:17:37;10.60;;;6.90;;
34234;SDS011;20500;49.856;20.290;2022-07-01T12:20:48;14.70;;;7.40;;
34234;SDS011;20500;49.856;20.290;2022-07-01T12:24:04;13.30;;;7.00;;
34234;SDS011;20500;49.856;20.290;2022-07-01T12:27:11;13.30;;;7.20;;
34234;SDS011;20500;49.856;20.290;2022-07-01T12:30:23;12.10;;;7.10;;
34234;SDS011;20500;49.856;20.290;2022-07-01T12:33:36;19.60;;;7.10;;
34234;SDS011;20500;49.856;20.290;2022-07-01T12:36:47;14.50;;;6.60;;
34234;SDS011;20500;49.856;20.290;2022-07-01T12:39:54;15.20;;;7.50;;
34234;SDS011;20500;49.856;20.290;2022-07-01T12:43:00;15.50;;;7.10;;
34234;SDS011;20500;49.856;20.290;2022-07-01T12:46:09;13.60;;;7.10;;
34234;SDS011;20500;49.856;20.290;2022-07-01T12:49:32;12.60;;;6.90;;
34234;SDS011;20500;49.856;20.290;2022-07-01T12:52:39;16.10;;;11.60;;
34234;SDS011;20500;49.856;20.290;2022-07-01T12:55:46;23.90;;;19.20;;
34234;SDS011;20500;49.856;20.290;2022-07-01T12:58:53;11.90;;;7.00;;
34234;SDS011;20500;49.856;20.290;2022-07-01T13:01:59;14.10;;;6.90;;
34234;SDS011;20500;49.856;20.290;2022-07-01T13:05:05;11.50;;;6.90;;
34234;SDS011;20500;49.856;20.290;2022-07-01T13:08:11;11.50;;;6.20;;
34234;SDS011;20500;49.856;20.290;2022-07-01T13:11:16;12.60;;;6.90;;
34234;SDS011;20500;49.856;20.290;2022-07-01T13:14:22;15.00;;;7.10;;
34234;SDS011;20500;49.856;20.290;2022-07-01T13:17:27;13.00;;;7.10;;
34234;SDS011;20500;49.856;20.290;2022-07-01T13:20:39;11.70;;;7.00;;
34234;SDS011;20500;49.856;20.290;2022-07-01T13:23:45;14.20;;;6.70;;
34234;SDS011;20500;49.856;20.290;2022-07-01T13:26:50;13.40;;;7.50;;
34234;SDS011;20500;49.856;20.290;2022-07-01T13:29:56;13.00;;;8.20;;
34234;SDS011;20500;49.856;20.290;2022-07-01T13:33:01;13.30;;;7.20;;
34234;SDS011;20500;49.856;20.290;2022-07-01T13:36:07;14.80;;;8.10;;
34234;SDS011;20500;49.856;20.290;2022-07-01T13:39:13;15.20;;;7.00;;
34234;SDS011;20500;49.856;20.290;2022-07-01T13:42:19;12.70;;;6.80;;
34234;SDS011;20500;49.856;20.290;2022-07-01T13:45:25;13.20;;;7.40;;
34234;SDS011;20500;49.856;20.290;2022-07-01T13:48:30;10.50;;;6.70;;
34234;SDS011;20500;49.856;20.290;2022-07-01T13:51:36;13.20;;;7.30;;
34234;SDS011;20500;49.856;20.290;2022-07-01T13:54:41;13.50;;;7.70;;
34234;SDS011;20500;49.856;20.290;2022-07-01T13:57:47;13.20;;;7.70;;
34234;SDS011;20500;49.856;20.290;2022-07-01T14:00:53;15.40;;;7.50;;
34234;SDS011;20500;49.856;20.290;2022-07-01T14:03:58;12.80;;;6.80;;
34234;SDS011;20500;49.856;20.290;2022-07-01T14:07:05;13.20;;;5.90;;
34234;SDS011;20500;49.856;20.290;2022-07-01T14:10:11;13.50;;;6.10;;
34234;SDS011;20500;49.856;20.290;2022-07-01T14:13:16;10.90;;;5.90;;
34234;SDS011;20500;49.856;20.290;2022-07-01T14:16:23;14.90;;;6.30;;
34234;SDS011;20500;49.856;20.290;2022-07-01T14:19:32;12.30;;;6.10;;
